Time;durP1;ratioP1;P1;durP2;ratioP2;P2;SDS_P1;SDS_P2;PMS_P1;PMS_P2;Temp;Humidity;BMP_temperature;BMP_pressure;BME280_temperature;BME280_humidity;BME280_pressure;Samples;Min_cycle;Max_cycle;Signal;HPM_P1;HPM_P2
2022/01/09 00:01:21;;;;;;;;;;;;;;;20.14;42.75;98694.72;5070234;28;19920;-81
2022/01/09 00:03:46;;;;;;;;;;;;;;;20.15;42.61;98703.72;5053293;28;19928;-86
2022/01/09 00:06:14;;;;;;;;;;;;;;;20.15;42.73;98718.22;5071929;28;19932;-88
2022/01/09 00:08:39;;;;;;;;;;;;;;;20.15;42.91;98736.59;5067025;28;20385;-84
2022/01/09 00:11:05;;;;;;;;;;;;;;;20.14;42.73;98741.31;5035716;28;19932;-80
2022/01/09 00:13:30;;;;;;;;;;;;;;;20.14;42.91;98738.56;5052915;28;20365;-81
2022/01/09 00:15:56;;;;;;;;;;;;;;;20.15;42.65;98747.56;5036860;28;20305;-81
2022/01/09 00:18:21;;;;;;;;;;;;;;;20.15;42.55;98756.59;5070345;28;19932;-81
2022/01/09 00:20:46;;;;;;;;;;;;;;;20.15;42.56;98764.81;5053813;28;20432;-80
2022/01/09 00:23:12;;;;;;;;;;;;;;;20.14;42.76;98770.66;5071481;28;20339;-81
2022/01/09 00:25:37;;;;;;;;;;;;;;;20.15;42.65;98772.25;5070076;28;19947;-80
2022/01/09 00:28:03;;;;;;;;;;;;;;;20.14;42.67;98787.91;5053172;28;19925;-80
2022/01/09 00:30:28;;;;;;;;;;;;;;;20.13;42.56;98810.16;5049030;28;19964;-80
2022/01/09 00:32:53;;;;;;;;;;;;;;;20.13;42.80;98813.69;5068812;28;20009;-81
2022/01/09 00:35:19;;;;;;;;;;;;;;;20.13;42.43;98816.44;5071239;28;19920;-81
2022/01/09 00:37:44;;;;;;;;;;;;;;;20.13;42.60;98818.41;5070127;28;20288;-81
2022/01/09 00:40:11;;;;;;;;;;;;;;;20.12;42.44;98827.78;5052731;28;20380;-80
2022/01/09 00:42:37;;;;;;;;;;;;;;;20.12;42.12;98827.78;5069987;28;20312;-81
2022/01/09 00:45:03;;;;;;;;;;;;;;;20.10;42.39;98831.66;5071587;28;19921;-81
2022/01/09 00:47:28;;;;;;;;;;;;;;;20.10;42.31;98847.31;5070960;28;19932;-81
2022/01/09 00:49:54;;;;;;;;;;;;;;;20.09;42.29;98846.50;5055573;28;19963;-81
2022/01/09 00:52:19;;;;;;;;;;;;;;;20.09;42.42;98860.22;5057272;28;19932;-80
2022/01/09 00:54:44;;;;;;;;;;;;;;;20.08;42.18;98871.53;5057007;28;19920;-81
2022/01/09 00:57:10;;;;;;;;;;;;;;;20.08;42.38;98866.03;5074271;28;19977;-81
2022/01/09 00:59:35;;;;;;;;;;;;;;;20.05;42.33;98867.53;5037193;28;20323;-81
2022/01/09 01:02:01;;;;;;;;;;;;;;;20.06;42.20;98885.59;5074414;28;20396;-81
2022/01/09 01:04:26;;;;;;;;;;;;;;;20.05;42.31;98884.00;5074464;28;19974;-81
2022/01/09 01:06:51;;;;;;;;;;;;;;;20.04;42.21;98885.16;5074393;28;20007;-81
2022/01/09 01:09:18;;;;;;;;;;;;;;;20.04;42.29;98892.56;5074086;28;19928;-81
2022/01/09 01:11:43;;;;;;;;;;;;;;;20.02;41.96;98895.66;5074330;28;19928;-80
2022/01/09 01:14:08;;;;;;;;;;;;;;;20.02;41.95;98909.34;5075123;28;19927;-82
2022/01/09 01:16:33;;;;;;;;;;;;;;;20.02;42.20;98914.84;5038000;28;20365;-80
2022/01/09 01:19:00;;;;;;;;;;;;;;;20.01;42.03;98923.44;5039783;28;19960;-81
2022/01/09 01:21:26;;;;;;;;;;;;;;;20.01;41.91;98926.16;5073539;28;19959;-81
2022/01/09 01:23:51;;;;;;;;;;;;;;;19.99;42.02;98932.00;5045972;28;19964;-81
2022/01/09 01:26:16;;;;;;;;;;;;;;;19.99;41.93;98939.41;5073366;28;19970;-81
2022/01/09 01:28:42;;;;;;;;;;;;;;;19.98;42.04;98941.38;5072058;28;20023;-81
2022/01/09 01:31:07;;;;;;;;;;;;;;;19.97;42.10;98947.97;5064862;28;19971;-81
2022/01/09 01:33:32;;;;;;;;;;;;;;;19.96;42.00;98948.31;5073623;28;19931;-81
2022/01/09 01:35:57;;;;;;;;;;;;;;;19.96;41.90;98959.28;5043846;28;20456;-81
2022/01/09 01:38:23;;;;;;;;;;;;;;;19.94;41.98;98969.81;5074335;28;19924;-81
2022/01/09 01:40:48;;;;;;;;;;;;;;;19.93;41.78;98987.38;5073346;28;19925;-80
2022/01/09 01:43:13;;;;;;;;;;;;;;;19.92;41.77;98988.53;5073351;28;19970;-81
2022/01/09 01:45:38;;;;;;;;;;;;;;;19.91;41.82;98987.75;5038977;28;19969;-81
2022/01/09 01:48:07;;;;;;;;;;;;;;;19.91;41.88;98995.16;5055167;28;20308;-80
2022/01/09 01:50:36;;;;;;;;;;;;;;;19.89;41.94;99001.78;5055101;28;19925;-81
2022/01/09 01:53:03;;;;;;;;;;;;;;;19.87;41.94;99015.03;5073604;28;19928;-81
2022/01/09 01:55:33;;;;;;;;;;;;;;;19.87;41.76;99017.78;5072629;28;19973;-81
2022/01/09 01:57:58;;;;;;;;;;;;;;;19.85;41.85;99025.53;5036503;28;20012;-81
2022/01/09 02:00:23;;;;;;;;;;;;;;;19.84;41.97;99034.91;5073484;28;20049;-81
2022/01/09 02:02:48;;;;;;;;;;;;;;;19.83;41.68;99046.22;5072390;28;19921;-81
2022/01/09 02:05:14;;;;;;;;;;;;;;;19.82;41.64;99042.69;5055432;28;19924;-81
2022/01/09 02:07:39;;;;;;;;;;;;;;;19.83;41.64;99054.44;5071718;28;19939;-81
2022/01/09 02:10:07;;;;;;;;;;;;;;;19.82;41.88;99055.59;5073135;28;20450;-81
2022/01/09 02:12:35;;;;;;;;;;;;;;;19.81;41.76;99056.75;5054858;28;19967;-81
2022/01/09 02:15:00;;;;;;;;;;;;;;;19.80;41.60;99052.38;5072761;28;19928;-81
2022/01/09 02:17:25;;;;;;;;;;;;;;;19.79;41.85;99064.50;5073781;28;19920;-81
2022/01/09 02:19:55;;;;;;;;;;;;;;;19.78;41.84;99071.09;5072262;28;19932;-81
2022/01/09 02:22:20;;;;;;;;;;;;;;;19.76;41.81;99082.41;5038662;28;19947;-81
2022/01/09 02:24:46;;;;;;;;;;;;;;;19.77;41.64;99084.00;5072425;28;20368;-81
2022/01/09 02:27:11;;;;;;;;;;;;;;;19.76;41.64;99089.84;5073562;28;19916;-81
2022/01/09 02:29:36;;;;;;;;;;;;;;;19.76;41.70;99098.88;5072052;28;19924;-81
2022/01/09 02:32:01;;;;;;;;;;;;;;;19.75;41.65;99102.72;5051575;28;19925;-81
2022/01/09 02:34:27;;;;;;;;;;;;;;;19.74;41.50;99106.63;5053839;28;20430;-81
2022/01/09 02:36:52;;;;;;;;;;;;;;;19.74;41.76;99117.56;5054823;28;20258;-82
2022/01/09 02:39:17;;;;;;;;;;;;;;;19.73;41.59;99126.13;5055197;28;19925;-81
2022/01/09 02:41:43;;;;;;;;;;;;;;;19.72;41.59;99128.06;5071656;28;19931;-81
2022/01/09 02:44:09;;;;;;;;;;;;;;;19.70;41.72;99130.34;5044699;28;20365;-81
2022/01/09 02:46:52;;;;;;;;;;;;;;;19.71;41.92;99139.41;5054236;28;19927;-81
2022/01/09 02:49:18;;;;;;;;;;;;;;;19.69;41.54;99134.25;5072522;28;19932;-81
2022/01/09 02:51:45;;;;;;;;;;;;;;;19.69;41.55;99150.69;5053697;28;19925;-81
2022/01/09 02:56:54;;;;;;;;;;;;;;;19.67;41.66;99158.44;5058205;28;20442;-81
2022/01/09 02:59:20;;;;;;;;;;;;;;;19.67;41.63;99164.72;5071834;28;19916;-81
2022/01/09 03:01:45;;;;;;;;;;;;;;;19.66;41.68;99165.03;5058944;28;19928;-81
2022/01/09 03:04:10;;;;;;;;;;;;;;;19.65;41.74;99177.13;5054779;28;19969;-81
2022/01/09 03:06:36;;;;;;;;;;;;;;;19.64;41.71;99170.06;5071754;28;19920;-82
2022/01/09 03:09:04;;;;;;;;;;;;;;;19.64;41.58;99181.00;5054214;28;19927;-81
2022/01/09 03:11:31;;;;;;;;;;;;;;;19.63;41.54;99190.34;5053075;28;20372;-81
2022/01/09 03:13:56;;;;;;;;;;;;;;;19.62;41.79;99202.47;5053724;28;19931;-81
2022/01/09 03:16:21;;;;;;;;;;;;;;;19.61;41.59;99207.16;5050866;28;20015;-81
2022/01/09 03:18:46;;;;;;;;;;;;;;;19.61;41.46;99200.88;5064907;28;19928;-82
2022/01/09 03:21:12;;;;;;;;;;;;;;;19.60;41.51;99208.25;5037833;28;19950;-81
2022/01/09 03:23:37;;;;;;;;;;;;;;;19.59;41.44;99211.38;5071260;28;19920;-81
2022/01/09 03:26:03;;;;;;;;;;;;;;;19.59;41.77;99222.31;5071304;28;19943;-81
2022/01/09 03:28:29;;;;;;;;;;;;;;;19.57;41.51;99217.16;5053842;28;19925;-81
2022/01/09 03:30:54;;;;;;;;;;;;;;;19.57;41.41;99219.13;5070553;28;19924;-81
2022/01/09 03:33:19;;;;;;;;;;;;;;;19.56;41.45;99223.78;5052814;28;20006;-81
2022/01/09 03:35:45;;;;;;;;;;;;;;;19.55;41.55;99233.13;5071146;28;20353;-81
2022/01/09 03:38:12;;;;;;;;;;;;;;;19.55;41.52;99243.31;5071580;28;19921;-81
2022/01/09 03:40:37;;;;;;;;;;;;;;;19.55;41.61;99248.78;5036714;28;19928;-81
2022/01/09 03:43:02;;;;;;;;;;;;;;;19.53;41.60;99257.34;5034113;28;19932;-81
2022/01/09 03:45:28;;;;;;;;;;;;;;;19.54;41.74;99271.84;5052827;28;19928;-81
2022/01/09 03:47:53;;;;;;;;;;;;;;;19.52;41.73;99274.91;5071274;28;19925;-81
2022/01/09 03:50:19;;;;;;;;;;;;;;;19.51;41.51;99278.00;5071587;28;20019;-81
2022/01/09 03:52:47;;;;;;;;;;;;;;;19.50;41.67;99279.91;5070950;28;19926;-81
2022/01/09 03:55:12;;;;;;;;;;;;;;;19.49;41.69;99289.28;5053863;28;19927;-81
2022/01/09 03:57:38;;;;;;;;;;;;;;;19.49;41.66;99288.47;5053570;28;19999;-82
2022/01/09 04:00:04;;;;;;;;;;;;;;;19.49;41.50;99296.69;5071144;28;19928;-81
2022/01/09 04:02:30;;;;;;;;;;;;;;;19.47;41.59;99297.03;5053402;28;19971;-81
2022/01/09 04:04:55;;;;;;;;;;;;;;;19.46;41.70;99307.19;5053365;28;19972;-81
2022/01/09 04:07:20;;;;;;;;;;;;;;;19.46;41.69;99312.66;5070743;28;19925;-81
2022/01/09 04:09:47;;;;;;;;;;;;;;;19.46;41.48;99312.66;5070516;28;19927;-81
2022/01/09 04:12:31;;;;;;;;;;;;;;;19.45;41.60;99313.81;5053429;28;19928;-81
2022/01/09 04:14:56;;;;;;;;;;;;;;;19.45;41.52;99324.75;5070859;28;20007;-81
2022/01/09 04:17:34;;;;;;;;;;;;;;;19.43;41.54;99324.28;5071110;28;19982;-81
2022/01/09 04:20:00;;;;;;;;;;;;;;;19.44;41.69;99336.03;5071317;28;19982;-81
2022/01/09 04:22:25;;;;;;;;;;;;;;;19.43;41.69;99346.19;5072878;28;19928;-81
2022/01/09 04:24:50;;;;;;;;;;;;;;;19.42;41.49;99352.78;5040506;28;19928;-81
2022/01/09 04:27:15;;;;;;;;;;;;;;;19.41;41.73;99351.22;5074719;28;19924;-81
2022/01/09 04:29:41;;;;;;;;;;;;;;;19.40;41.58;99368.78;5056698;28;19962;-82
2022/01/09 04:32:06;;;;;;;;;;;;;;;19.40;41.60;99363.31;5040313;28;19928;-81
2022/01/09 04:34:31;;;;;;;;;;;;;;;19.40;41.47;99379.75;5075510;28;19964;-81
2022/01/09 04:36:59;;;;;;;;;;;;;;;19.39;41.65;99369.09;5057093;28;19989;-81
2022/01/09 04:39:25;;;;;;;;;;;;;;;19.38;41.62;99376.53;5056225;28;19928;-81
2022/01/09 04:41:50;;;;;;;;;;;;;;;19.39;41.48;99380.06;5074690;28;19924;-82
2022/01/09 04:44:16;;;;;;;;;;;;;;;19.38;41.68;99390.22;5057438;28;20027;-81
2022/01/09 04:46:48;;;;;;;;;;;;;;;19.38;41.68;99390.22;5073838;28;19963;-81
2022/01/09 04:49:13;;;;;;;;;;;;;;;19.38;41.69;99400.38;5074885;28;19924;-81
2022/01/09 04:51:38;;;;;;;;;;;;;;;19.37;41.71;99399.56;5053656;28;19948;-81
2022/01/09 04:54:04;;;;;;;;;;;;;;;19.36;41.78;99406.19;5069791;28;19932;-81
2022/01/09 04:56:30;;;;;;;;;;;;;;;19.36;41.77;99419.88;5037587;28;19954;-81
2022/01/09 04:58:55;;;;;;;;;;;;;;;19.36;41.55;99417.13;5069233;28;19960;-81
2022/01/09 05:01:21;;;;;;;;;;;;;;;19.34;41.53;99418.59;5074170;28;20009;-81
2022/01/09 05:03:46;;;;;;;;;;;;;;;19.35;41.60;99417.44;5055872;28;19932;-82
2022/01/09 05:06:11;;;;;;;;;;;;;;;19.33;41.58;99426.00;5039762;28;19933;-81
2022/01/09 05:08:36;;;;;;;;;;;;;;;19.34;41.47;99432.28;5075134;28;19935;-81
2022/01/09 05:11:02;;;;;;;;;;;;;;;19.33;41.75;99431.50;5055762;28;19932;-81
2022/01/09 05:13:27;;;;;;;;;;;;;;;19.32;41.80;99438.09;5074939;28;19999;-81
2022/01/09 05:15:53;;;;;;;;;;;;;;;19.33;41.63;99449.84;5057801;28;19924;-82
2022/01/09 05:18:19;;;;;;;;;;;;;;;19.33;41.71;99458.06;5074675;28;19924;-81
2022/01/09 05:20:45;;;;;;;;;;;;;;;19.33;41.68;99471.75;5072832;28;19931;-81
2022/01/09 05:23:10;;;;;;;;;;;;;;;19.32;41.65;99467.41;5056296;28;19925;-81
2022/01/09 05:25:36;;;;;;;;;;;;;;;19.32;41.73;99475.63;5053850;28;20448;-81
2022/01/09 05:28:01;;;;;;;;;;;;;;;19.31;41.76;99476.75;5074038;28;19931;-81
2022/01/09 05:30:26;;;;;;;;;;;;;;;19.30;41.83;99481.41;5074420;28;19921;-81
2022/01/09 05:32:51;;;;;;;;;;;;;;;19.29;41.62;99490.78;5073662;28;19928;-82
2022/01/09 05:35:17;;;;;;;;;;;;;;;19.29;41.62;99493.50;5055078;28;20395;-82
2022/01/09 05:37:42;;;;;;;;;;;;;;;19.28;41.54;99500.13;5074799;28;20284;-81
2022/01/09 05:40:08;;;;;;;;;;;;;;;19.28;41.48;99504.78;5073485;28;20026;-81
2022/01/09 05:42:33;;;;;;;;;;;;;;;19.28;41.74;99502.88;5073406;28;19928;-81
2022/01/09 05:44:58;;;;;;;;;;;;;;;19.28;41.76;99510.25;5055935;28;20376;-81
2022/01/09 05:47:24;;;;;;;;;;;;;;;19.27;41.64;99506.72;5073501;28;20290;-81
2022/01/09 05:49:49;;;;;;;;;;;;;;;19.27;41.61;99505.94;5072552;28;19925;-81
2022/01/09 05:52:14;;;;;;;;;;;;;;;19.26;41.75;99518.81;5074460;28;19993;-82
2022/01/09 05:54:39;;;;;;;;;;;;;;;19.26;41.80;99518.81;5073315;28;20002;-81
2022/01/09 05:57:05;;;;;;;;;;;;;;;19.26;41.74;99521.56;5073441;28;19924;-81
2022/01/09 05:59:30;;;;;;;;;;;;;;;19.25;41.77;99528.16;5073759;28;19935;-81
2022/01/09 06:01:57;;;;;;;;;;;;;;;19.25;41.78;99525.41;5054741;28;19925;-81
2022/01/09 06:04:22;;;;;;;;;;;;;;;19.24;41.70;99526.56;5073711;28;19920;-81
2022/01/09 06:06:49;;;;;;;;;;;;;;;19.24;41.85;99535.56;5068041;28;19928;-82
2022/01/09 06:09:14;;;;;;;;;;;;;;;19.23;41.79;99541.38;5070035;28;19925;-81
2022/01/09 06:11:40;;;;;;;;;;;;;;;19.23;41.76;99541.38;5055584;28;20315;-81
2022/01/09 06:14:05;;;;;;;;;;;;;;;19.23;41.89;99544.13;5072538;28;19979;-81
2022/01/09 06:16:30;;;;;;;;;;;;;;;19.23;41.70;99541.38;5055576;28;20364;-81
2022/01/09 06:18:55;;;;;;;;;;;;;;;19.22;41.84;99539.75;5071063;28;19932;-81
2022/01/09 06:21:21;;;;;;;;;;;;;;;19.20;41.70;99542.84;5073636;28;20330;-81
2022/01/09 06:23:46;;;;;;;;;;;;;;;19.20;41.67;99547.50;5055149;28;20031;-80
2022/01/09 06:26:11;;;;;;;;;;;;;;;19.20;41.71;99552.97;5072546;28;19925;-80
2022/01/09 06:28:36;;;;;;;;;;;;;;;19.20;41.72;99552.97;5054682;28;20136;-81
2022/01/09 06:31:02;;;;;;;;;;;;;;;19.19;41.86;99570.53;5054385;28;20394;-81
2022/01/09 06:33:27;;;;;;;;;;;;;;;19.19;41.84;99563.13;5072454;28;19928;-81
2022/01/09 06:35:52;;;;;;;;;;;;;;;19.19;41.86;99570.53;5071835;28;19959;-82
2022/01/09 06:38:17;;;;;;;;;;;;;;;19.18;41.82;99571.69;5072863;28;19935;-81
2022/01/09 06:40:43;;;;;;;;;;;;;;;19.18;41.71;99575.22;5072463;28;19924;-81
2022/01/09 06:43:08;;;;;;;;;;;;;;;19.17;41.86;99579.06;5072283;28;19934;-81
2022/01/09 06:45:33;;;;;;;;;;;;;;;19.17;41.81;99581.81;5055108;28;19967;-81
2022/01/09 06:47:59;;;;;;;;;;;;;;;19.18;41.78;99579.91;5071682;28;19963;-81
2022/01/09 06:50:25;;;;;;;;;;;;;;;19.17;41.70;99581.81;5072685;28;19926;-80
2022/01/09 06:52:50;;;;;;;;;;;;;;;19.16;41.94;99598.56;5072257;28;20246;-81
2022/01/09 06:55:16;;;;;;;;;;;;;;;19.16;41.77;99602.13;5072073;28;19920;-82
2022/01/09 06:57:42;;;;;;;;;;;;;;;19.16;41.80;99595.84;5072141;28;19925;-81
2022/01/09 07:00:08;;;;;;;;;;;;;;;19.16;41.79;99612.25;5053837;28;19948;-81
2022/01/09 07:02:33;;;;;;;;;;;;;;;19.14;41.75;99622.72;5071882;28;19927;-81
2022/01/09 07:04:59;;;;;;;;;;;;;;;19.14;41.76;99606.31;5061454;28;20018;-82
2022/01/09 07:07:24;;;;;;;;;;;;;;;19.13;41.69;99618.41;5046172;28;19920;-81
2022/01/09 07:09:49;;;;;;;;;;;;;;;19.12;41.82;99614.03;5071940;28;19950;-81
2022/01/09 07:12:14;;;;;;;;;;;;;;;19.12;41.79;99630.47;5072168;28;20145;-81
2022/01/09 07:14:40;;;;;;;;;;;;;;;19.11;41.65;99635.13;5072427;28;19920;-80
2022/01/09 07:17:05;;;;;;;;;;;;;;;19.11;41.84;99650.75;5070142;28;19931;-80
2022/01/09 07:19:30;;;;;;;;;;;;;;;19.11;41.86;99650.75;5071635;28;20285;-82
2022/01/09 07:21:56;;;;;;;;;;;;;;;19.10;41.91;99651.88;5070708;28;20005;-81
2022/01/09 07:24:21;;;;;;;;;;;;;;;19.08;41.74;99657.69;5070810;28;19970;-82
2022/01/09 07:26:46;;;;;;;;;;;;;;;19.09;41.79;99666.72;5072035;28;19931;-81
2022/01/09 07:29:12;;;;;;;;;;;;;;;19.09;41.87;99653.03;5071769;28;19924;-81
2022/01/09 07:31:37;;;;;;;;;;;;;;;19.08;41.74;99657.69;5036266;28;19929;-81
2022/01/09 07:34:02;;;;;;;;;;;;;;;19.07;41.80;99653.34;5070960;28;20021;-82
2022/01/09 07:36:27;;;;;;;;;;;;;;;19.07;41.74;99666.22;5071876;28;19968;-80
2022/01/09 07:38:53;;;;;;;;;;;;;;;19.07;41.87;99682.66;5071263;28;19921;-81
2022/01/09 07:41:18;;;;;;;;;;;;;;;19.06;41.82;99683.78;5069462;28;20488;-80
2022/01/09 07:43:44;;;;;;;;;;;;;;;19.06;41.88;99667.38;5070412;28;20472;-81
2022/01/09 07:46:09;;;;;;;;;;;;;;;19.05;41.71;99677.50;5071650;28;19931;-81
2022/01/09 07:48:35;;;;;;;;;;;;;;;19.05;41.90;99679.41;5071643;28;19982;-81
2022/01/09 07:51:00;;;;;;;;;;;;;;;19.04;41.83;99678.63;5070689;28;20369;-80
2022/01/09 07:53:25;;;;;;;;;;;;;;;19.03;41.63;99685.25;5037366;28;19990;-81
2022/01/09 07:55:51;;;;;;;;;;;;;;;19.03;41.83;99687.97;5070014;28;20331;-80
2022/01/09 07:58:17;;;;;;;;;;;;;;;19.02;42.00;99692.66;5070681;28;19927;-81
2022/01/09 08:00:43;;;;;;;;;;;;;;;19.02;41.95;99705.50;5071136;28;19932;-81
2022/01/09 08:03:08;;;;;;;;;;;;;;;19.02;41.93;99706.34;5049660;28;19925;-81
2022/01/09 08:05:34;;;;;;;;;;;;;;;19.01;41.82;99701.19;5070061;28;19947;-81
2022/01/09 08:07:59;;;;;;;;;;;;;;;19.00;41.92;99700.38;5071589;28;20011;-81
2022/01/09 08:10:24;;;;;;;;;;;;;;;19.00;41.82;99705.06;5051479;28;20010;-81
2022/01/09 08:12:49;;;;;;;;;;;;;;;18.99;41.97;99709.69;5071633;28;19925;-81
2022/01/09 08:15:15;;;;;;;;;;;;;;;18.98;41.72;99721.78;5071413;28;20391;-81
2022/01/09 08:17:45;;;;;;;;;;;;;;;18.98;41.87;99721.00;5053566;28;20456;-80
2022/01/09 08:20:11;;;;;;;;;;;;;;;18.98;41.76;99730.00;5053519;28;20506;-81
2022/01/09 08:22:36;;;;;;;;;;;;;;;18.97;41.82;99738.50;5068839;28;19940;-80
2022/01/09 08:25:03;;;;;;;;;;;;;;;18.96;41.97;99737.72;5053614;28;19931;-81
2022/01/09 08:27:28;;;;;;;;;;;;;;;18.97;41.96;99738.50;5052935;28;19931;-81
2022/01/09 08:29:53;;;;;;;;;;;;;;;18.96;41.85;99729.50;5072196;28;19921;-80
2022/01/09 08:32:19;;;;;;;;;;;;;;;18.96;42.13;99734.19;5070099;28;19924;-81
2022/01/09 08:34:45;;;;;;;;;;;;;;;18.94;42.13;99734.50;5053690;28;19924;-81
2022/01/09 08:37:12;;;;;;;;;;;;;;;18.95;42.05;99747.06;5052641;28;19924;-82
2022/01/09 08:39:42;;;;;;;;;;;;;;;18.94;41.87;99745.44;5070017;28;19987;-81
2022/01/09 08:42:07;;;;;;;;;;;;;;;18.94;41.81;99752.84;5064707;28;19975;-81
2022/01/09 08:44:32;;;;;;;;;;;;;;;18.94;41.85;99753.66;5070525;28;19955;-81
2022/01/09 08:46:57;;;;;;;;;;;;;;;18.93;41.98;99765.72;5070847;28;19968;-81
2022/01/09 08:49:23;;;;;;;;;;;;;;;18.92;41.88;99766.84;5052452;28;19924;-80
2022/01/09 08:51:48;;;;;;;;;;;;;;;18.92;42.01;99766.84;5071191;28;20352;-81
2022/01/09 08:54:13;;;;;;;;;;;;;;;18.91;41.96;99770.72;5071411;28;20388;-81
2022/01/09 08:56:39;;;;;;;;;;;;;;;18.91;41.80;99784.41;5070907;28;19920;-81
2022/01/09 08:59:05;;;;;;;;;;;;;;;18.91;41.94;99781.66;5070787;28;19920;-81
2022/01/09 09:01:30;;;;;;;;;;;;;;;18.90;41.90;99788.28;5070635;28;21441;-81
2022/01/09 09:03:55;;;;;;;;;;;;;;;18.90;42.02;99784.72;5071046;28;19932;-81
2022/01/09 09:06:21;;;;;;;;;;;;;;;18.89;41.96;99792.13;5069463;28;20031;-81
2022/01/09 09:08:46;;;;;;;;;;;;;;;18.90;42.00;99799.22;5061514;28;20027;-81
2022/01/09 09:11:11;;;;;;;;;;;;;;;18.90;42.02;99798.41;5067053;28;19924;-81
2022/01/09 09:13:37;;;;;;;;;;;;;;;18.90;41.81;99792.91;5064985;28;20011;-80
2022/01/09 09:16:03;;;;;;;;;;;;;;;18.90;42.21;99798.41;5040087;28;19925;-81
2022/01/09 09:18:28;;;;;;;;;;;;;;;18.89;42.18;99805.00;5073725;28;19936;-80
2022/01/09 09:20:53;;;;;;;;;;;;;;;18.89;42.00;99805.00;5073155;28;20422;-80
2022/01/09 09:23:19;;;;;;;;;;;;;;;18.89;42.21;99813.22;5056299;28;20004;-80
2022/01/09 09:25:45;;;;;;;;;;;;;;;18.88;42.14;99817.09;5074605;28;20414;-81
2022/01/09 09:28:10;;;;;;;;;;;;;;;18.88;41.91;99817.09;5073746;28;19927;-82
2022/01/09 09:30:35;;;;;;;;;;;;;;;18.87;41.93;99820.94;5045941;28;20361;-82
2022/01/09 09:33:01;;;;;;;;;;;;;;;18.87;42.17;99829.13;5072977;28;19928;-81
2022/01/09 09:35:26;;;;;;;;;;;;;;;18.86;42.11;99833.00;5073950;28;19973;-82
2022/01/09 09:37:51;;;;;;;;;;;;;;;18.87;41.99;99831.88;5056201;28;19932;-81
2022/01/09 09:40:16;;;;;;;;;;;;;;;18.87;41.99;99829.13;5052286;28;20011;-81
2022/01/09 09:42:42;;;;;;;;;;;;;;;18.86;41.88;99839.28;5064583;28;19920;-81
2022/01/09 09:45:09;;;;;;;;;;;;;;;18.86;41.98;99842.03;5074510;28;20427;-81
2022/01/09 09:47:35;;;;;;;;;;;;;;;18.86;41.95;99846.69;5073122;28;19921;-82
2022/01/09 09:50:01;;;;;;;;;;;;;;;18.86;41.97;99850.22;5073923;28;19924;-82
2022/01/09 09:52:26;;;;;;;;;;;;;;;18.86;41.93;99843.97;5035441;28;19925;-82
2022/01/09 09:54:52;;;;;;;;;;;;;;;18.85;41.96;99850.53;5054146;28;19951;-82
2022/01/09 09:57:17;;;;;;;;;;;;;;;18.85;41.92;99856.84;5053111;28;19929;-81
2022/01/09 09:59:43;;;;;;;;;;;;;;;18.85;41.93;99858.75;5035567;28;20015;-82
2022/01/09 10:02:12;;;;;;;;;;;;;;;18.84;42.00;99862.63;5052462;28;19929;-82
2022/01/09 10:04:55;;;;;;;;;;;;;;;18.85;42.11;99858.75;5053228;28;19956;-82
2022/01/09 10:07:23;;;;;;;;;;;;;;;18.84;41.97;99857.16;5052485;28;19917;-84
2022/01/09 10:09:56;;;;;;;;;;;;;;;18.84;42.06;99868.91;5052684;28;19931;-82
2022/01/09 10:12:29;;;;;;;;;;;;;;;18.83;42.26;99870.03;5049798;28;19921;-82
2022/01/09 10:14:56;;;;;;;;;;;;;;;18.82;41.85;99871.13;5048627;28;19928;-82
2022/01/09 10:17:24;;;;;;;;;;;;;;;18.83;42.12;99866.50;5047388;28;19944;-81
2022/01/09 10:19:57;;;;;;;;;;;;;;;18.82;42.04;99868.41;5052830;28;19920;-81
2022/01/09 10:22:22;;;;;;;;;;;;;;;18.83;42.34;99869.22;5051892;28;19921;-82
2022/01/09 10:24:47;;;;;;;;;;;;;;;18.83;42.30;99869.22;5054651;28;20355;-82
2022/01/09 10:27:26;;;;;;;;;;;;;;;18.83;42.33;99870.03;5048749;28;20395;-89
2022/01/09 10:29:51;;;;;;;;;;;;;;;18.83;42.51;99875.50;5052591;28;19921;-83
2022/01/09 10:32:17;;;;;;;;;;;;;;;18.82;42.55;99879.34;5052276;28;19931;-77
2022/01/09 10:34:42;;;;;;;;;;;;;;;18.84;42.63;99871.63;5052109;28;19971;-77
2022/01/09 10:37:16;;;;;;;;;;;;;;;18.86;42.83;99876.78;5051843;28;20296;-77
2022/01/09 10:39:43;;;;;;;;;;;;;;;18.87;43.24;99881.94;5047218;28;19921;-78
2022/01/09 10:42:12;;;;;;;;;;;;;;;18.89;43.13;99887.91;5052871;28;19924;-78
2022/01/09 10:44:39;;;;;;;;;;;;;;;18.90;43.08;99891.44;5051256;28;19925;-78
2022/01/09 10:47:09;;;;;;;;;;;;;;;18.91;43.42;99893.06;5051768;28;20004;-77
2022/01/09 10:49:46;;;;;;;;;;;;;;;18.92;43.36;99897.41;5051232;28;19921;-78
2022/01/09 10:52:12;;;;;;;;;;;;;;;18.92;43.04;99902.88;5050707;28;19921;-78
2022/01/09 10:54:37;;;;;;;;;;;;;;;18.92;43.52;99900.94;5052386;28;19939;-82
2022/01/09 10:57:09;;;;;;;;;;;;;;;18.93;43.45;99904.50;5052754;28;19932;-86
2022/01/09 10:59:35;;;;;;;;;;;;;;;18.93;43.59;99902.56;5050054;28;19921;-84
2022/01/09 11:02:00;;;;;;;;;;;;;;;18.95;43.84;99905.78;5050527;28;19940;-86
2022/01/09 11:04:25;;;;;;;;;;;;;;;18.96;43.89;99901.91;5067998;28;20253;-81
2022/01/09 11:06:51;;;;;;;;;;;;;;;18.97;44.10;99899.97;5052579;28;19980;-81
2022/01/09 11:09:17;;;;;;;;;;;;;;;18.98;44.10;99901.59;5050119;28;19925;-82
2022/01/09 11:11:44;;;;;;;;;;;;;;;19.01;44.20;99911.91;5051300;28;19932;-81
2022/01/09 11:14:17;;;;;;;;;;;;;;;19.03;44.52;99912.41;5050963;28;19921;-79
2022/01/09 11:16:51;;;;;;;;;;;;;;;19.05;44.49;99917.53;5052221;28;19924;-78
2022/01/09 11:19:17;;;;;;;;;;;;;;;19.06;44.72;99916.44;5050885;28;19998;-79
2022/01/09 11:21:54;;;;;;;;;;;;;;;19.07;44.76;99918.81;5048058;28;20381;-95
2022/01/09 11:24:31;;;;;;;;;;;;;;;19.10;44.64;99931.06;5052143;28;20435;-80
2022/01/09 11:27:07;;;;;;;;;;;;;;;19.11;44.61;99929.97;5050280;28;20470;-80
2022/01/09 11:29:48;;;;;;;;;;;;;;;19.12;44.66;99932.38;5051898;28;19940;-81
2022/01/09 11:32:32;;;;;;;;;;;;;;;19.11;44.42;99928.03;5048557;28;20050;-80
2022/01/09 11:35:06;;;;;;;;;;;;;;;19.12;44.38;99928.81;5051639;28;19921;-80
2022/01/09 11:37:40;;;;;;;;;;;;;;;19.12;44.27;99932.38;5070276;28;20339;-80
2022/01/09 11:40:24;;;;;;;;;;;;;;;19.12;44.17;99937.03;5050695;28;19940;-80
2022/01/09 11:43:01;;;;;;;;;;;;;;;19.13;44.00;99946.88;5050647;28;19921;-80
2022/01/09 11:45:42;;;;;;;;;;;;;;;19.11;44.18;99952.66;5048920;28;19928;-80
2022/01/09 11:48:07;;;;;;;;;;;;;;;19.11;43.96;99951.88;5047102;28;19972;-80
2022/01/09 11:50:41;;;;;;;;;;;;;;;19.10;43.79;99945.59;5050821;28;20343;-80
2022/01/09 11:53:09;;;;;;;;;;;;;;;19.10;43.84;99959.28;5050064;28;20209;-81
2022/01/09 11:55:36;;;;;;;;;;;;;;;19.09;43.69;99956.84;5051237;28;19990;-81
2022/01/09 11:58:06;;;;;;;;;;;;;;;19.08;43.46;99961.53;5050538;28;19964;-84
2022/01/09 12:00:31;;;;;;;;;;;;;;;19.09;43.31;99959.59;5051481;28;19947;-81
2022/01/09 12:02:57;;;;;;;;;;;;;;;19.08;43.42;99968.94;5052146;28;19916;-81
2022/01/09 12:05:22;;;;;;;;;;;;;;;19.07;43.41;99962.63;5050259;28;19921;-81
2022/01/09 12:07:48;;;;;;;;;;;;;;;19.07;43.30;99967.31;5033280;28;19933;-81
2022/01/09 12:10:26;;;;;;;;;;;;;;;19.06;43.47;99971.19;5051507;28;19917;-81
2022/01/09 12:12:52;;;;;;;;;;;;;;;19.04;43.08;99974.22;5046392;28;19928;-78
2022/01/09 12:15:36;;;;;;;;;;;;;;;19.02;43.00;99977.28;5044445;28;19925;-84
2022/01/09 12:18:03;;;;;;;;;;;;;;;19.01;43.04;99978.41;5065027;28;19923;-81
2022/01/09 12:20:31;;;;;;;;;;;;;;;19.00;42.90;99984.22;5049363;28;20356;-82
2022/01/09 12:23:02;;;;;;;;;;;;;;;18.98;42.64;99987.25;5065430;28;19925;-83
2022/01/09 12:25:30;;;;;;;;;;;;;;;18.96;42.59;99978.53;5037365;28;19955;-79
2022/01/09 12:28:19;;;;;;;;;;;;;;;18.96;42.77;99981.28;5041178;28;19951;-80
2022/01/09 12:30:50;;;;;;;;;;;;;;;18.97;42.59;99993.03;5049537;28;19917;-75
2022/01/09 12:33:19;;;;;;;;;;;;;;;18.96;42.62;99989.50;5030480;28;20280;-80
2022/01/09 12:35:54;;;;;;;;;;;;;;;18.95;42.59;99995.28;5049874;28;20387;-81
2022/01/09 12:38:20;;;;;;;;;;;;;;;18.96;42.69;99992.22;5049328;28;19978;-76
2022/01/09 12:40:46;;;;;;;;;;;;;;;18.97;42.72;99999.31;5049436;28;19967;-78
2022/01/09 12:43:12;;;;;;;;;;;;;;;18.98;42.58;99995.47;5050521;28;19968;-79
2022/01/09 12:45:43;;;;;;;;;;;;;;;19.00;42.69;99990.47;5054181;28;19924;-79
2022/01/09 12:48:17;;;;;;;;;;;;;;;19.02;42.86;100004.66;5053072;28;20011;-80